createdAt,value
2022-08-07T00:06:34.043Z,33.35
2022-08-07T00:09:16.660Z,33.57
2022-08-07T00:11:58.960Z,33.73
2022-08-07T00:14:39.118Z,33.51
2022-08-07T00:17:17.741Z,33.86
2022-08-07T00:20:01.358Z,33.75
2022-08-07T00:33:22.127Z,33.91
2022-08-07T00:35:57.487Z,33.95
2022-08-07T00:38:33.192Z,33.69
2022-08-07T00:41:09.882Z,33.70
2022-08-07T00:43:59.021Z,34.28
2022-08-07T00:46:34.090Z,34.15
2022-08-07T00:49:10.136Z,34.24
2022-08-07T00:59:55.068Z,33.74
2022-08-07T01:02:35.116Z,33.93
2022-08-07T01:05:19.268Z,34.22
2022-08-07T01:08:02.927Z,33.96
2022-08-07T01:10:36.807Z,34.32
2022-08-07T01:13:11.127Z,33.98
2022-08-07T01:26:44.110Z,34.35
2022-08-07T01:29:31.398Z,34.66
2022-08-07T01:32:15.094Z,34.44
2022-08-07T01:34:51.635Z,34.76
2022-08-07T01:37:26.233Z,34.83
2022-08-07T01:40:08.252Z,34.29
2022-08-07T01:54:08.924Z,35.11
2022-08-07T01:56:50.116Z,34.91
2022-08-07T01:59:32.275Z,34.78
2022-08-07T02:02:19.076Z,35.00
2022-08-07T02:05:43.470Z,35.23
2022-08-07T02:08:36.483Z,34.77
2022-08-07T02:21:56.604Z,35.30
2022-08-07T02:24:35.031Z,35.15
2022-08-07T02:27:25.175Z,35.23
2022-08-07T02:30:07.303Z,35.47
2022-08-07T02:33:03.961Z,35.72
2022-08-07T02:46:58.130Z,35.87
2022-08-07T02:49:58.019Z,35.60
2022-08-07T02:52:47.905Z,36.14
2022-08-07T02:55:28.383Z,35.79
2022-08-07T02:58:27.461Z,35.87
2022-08-07T03:15:07.894Z,36.45
2022-08-07T03:17:53.253Z,36.08
2022-08-07T03:20:37.680Z,35.96
2022-08-07T03:23:19.516Z,36.14
2022-08-07T03:25:59.805Z,36.26
2022-08-07T03:28:46.168Z,36.32
2022-08-07T03:42:13.181Z,36.34
2022-08-07T03:44:57.687Z,36.65
2022-08-07T03:47:48.065Z,36.42
2022-08-07T03:50:29.188Z,36.24
2022-08-07T03:53:11.156Z,36.42
2022-08-07T04:07:07.637Z,36.89
2022-08-07T04:09:54.979Z,36.90
2022-08-07T04:12:39.700Z,36.88
2022-08-07T04:15:16.557Z,37.08
2022-08-07T04:18:57.148Z,37.22
2022-08-07T04:20:54.365Z,37.36
2022-08-07T04:23:43.444Z,37.17
2022-08-07T04:34:00.080Z,37.26
2022-08-07T04:36:41.141Z,37.42
2022-08-07T04:39:15.112Z,37.38
2022-08-07T04:41:58.140Z,37.31
2022-08-07T04:44:34.919Z,37.14
2022-08-07T04:47:57.095Z,37.04
2022-08-07T05:01:01.197Z,37.48
2022-08-07T05:04:06.760Z,37.49
2022-08-07T05:07:09.617Z,37.54
2022-08-07T05:10:02.548Z,37.68
2022-08-07T05:13:01.398Z,37.72
2022-08-07T05:29:52.190Z,37.70
2022-08-07T05:32:36.197Z,37.70
2022-08-07T05:35:12.741Z,37.76
2022-08-07T05:38:08.859Z,37.38
2022-08-07T05:40:51.342Z,37.27
2022-08-07T05:43:49.851Z,37.86
2022-08-07T05:54:30.809Z,38.33
2022-08-07T05:57:17.149Z,38.59
2022-08-07T05:59:55.748Z,38.56
2022-08-07T06:02:48.080Z,39.04
2022-08-07T06:05:28.425Z,39.11
2022-08-07T06:08:30.861Z,39.24
2022-08-07T06:22:11.638Z,39.25
2022-08-07T06:24:55.577Z,38.81
2022-08-07T06:28:00.636Z,39.08
2022-08-07T06:30:37.455Z,39.38
2022-08-07T06:33:27.110Z,38.95
2022-08-07T06:50:07.067Z,37.52
2022-08-07T06:53:00.119Z,37.37
2022-08-07T06:55:48.011Z,36.97
2022-08-07T07:00:10.398Z,36.29
2022-08-07T07:01:50.624Z,36.18
2022-08-07T07:04:33.875Z,35.87
2022-08-07T07:14:35.029Z,33.77
2022-08-07T07:17:38.858Z,32.87
2022-08-07T07:20:20.859Z,33.05
2022-08-07T07:24:09.878Z,32.71
2022-08-07T07:26:34.226Z,33.04
2022-08-07T07:29:56.170Z,33.63
2022-08-07T07:42:47.154Z,32.81
2022-08-07T07:46:39.904Z,33.76
2022-08-07T07:48:36.030Z,33.33
2022-08-07T07:51:15.556Z,32.76
2022-08-07T07:54:04.102Z,33.49
2022-08-07T08:08:01.892Z,33.83
2022-08-07T08:10:38.630Z,33.17
2022-08-07T08:13:22.120Z,33.99
2022-08-07T08:16:01.207Z,33.20
2022-08-07T08:18:45.091Z,33.68
2022-08-07T08:21:25.900Z,32.78
2022-08-07T08:24:36.442Z,33.61
2022-08-07T08:34:48.127Z,34.88
2022-08-07T08:38:01.286Z,33.99
2022-08-07T08:40:37.499Z,33.86
2022-08-07T08:43:31.964Z,34.12
2022-08-07T08:46:26.699Z,34.82
2022-08-07T08:49:19.118Z,35.04
2022-08-07T09:02:57.713Z,30.47
2022-08-07T09:05:43.207Z,30.37
2022-08-07T09:08:39.276Z,29.91
2022-08-07T09:11:43.707Z,31.02
2022-08-07T09:14:39.098Z,32.15
2022-08-07T09:30:04.597Z,32.35
2022-08-07T09:31:49.259Z,32.15
2022-08-07T09:34:53.949Z,32.06
2022-08-07T09:37:48.392Z,31.72
2022-08-07T09:40:48.148Z,32.03
2022-08-07T09:44:05.679Z,30.84
2022-08-07T09:57:28.283Z,30.06
2022-08-07T10:00:18.803Z,29.11
2022-08-07T10:04:06.580Z,29.28
2022-08-07T10:06:56.985Z,29.32
2022-08-07T10:10:00.137Z,29.77
2022-08-07T10:24:05.881Z,29.21
2022-08-07T10:27:00.536Z,29.44
2022-08-07T10:29:59.604Z,28.82
2022-08-07T10:33:17.100Z,28.30
2022-08-07T10:48:50.080Z,27.75
2022-08-07T10:52:01.710Z,29.21
2022-08-07T10:55:00.717Z,28.93
2022-08-07T10:57:57.148Z,29.09
2022-08-07T11:00:50.579Z,28.65
2022-08-07T11:04:01.299Z,27.60
2022-08-07T11:17:45.985Z,28.80
2022-08-07T11:20:36.540Z,28.72
2022-08-07T11:23:36.617Z,28.71
2022-08-07T11:26:23.387Z,27.76
2022-08-07T11:29:41.053Z,28.10
2022-08-07T11:43:07.103Z,26.04
2022-08-07T11:46:11.287Z,26.07
2022-08-07T11:49:50.151Z,25.85
2022-08-07T11:52:39.619Z,25.78
2022-08-07T12:09:23.350Z,25.83
2022-08-07T12:12:10.234Z,26.02
2022-08-07T12:15:17.384Z,26.35
2022-08-07T12:18:13.898Z,26.69
2022-08-07T12:21:21.238Z,25.30
2022-08-07T12:24:37.854Z,25.20
2022-08-07T12:38:10.261Z,25.11
2022-08-07T12:40:47.335Z,24.98
2022-08-07T12:44:03.011Z,24.61
2022-08-07T12:46:53.140Z,25.24
2022-08-07T12:49:48.840Z,25.00
2022-08-07T13:03:23.031Z,26.42
2022-08-07T13:07:00.095Z,25.92
2022-08-07T13:10:20.079Z,25.85
2022-08-07T13:13:48.473Z,25.39
2022-08-07T13:16:36.713Z,24.88
2022-08-07T13:19:46.175Z,24.42
2022-08-07T13:29:47.869Z,24.76
2022-08-07T13:32:37.535Z,23.16
2022-08-07T13:35:24.883Z,23.65
2022-08-07T13:38:42.041Z,23.87
2022-08-07T13:41:34.298Z,24.93
2022-08-07T13:44:18.119Z,24.99
2022-08-07T13:57:40.354Z,24.00
2022-08-07T14:00:54.249Z,23.76
2022-08-07T14:04:06.682Z,24.58
2022-08-07T14:06:36.759Z,24.60
2022-08-07T14:10:02.928Z,24.78
2022-08-07T14:23:12.147Z,24.17
2022-08-07T14:25:55.507Z,23.24
2022-08-07T14:31:43.346Z,23.16
2022-08-07T14:34:46.390Z,23.98
2022-08-07T14:37:39.267Z,24.20
2022-08-07T14:50:37.844Z,24.34
2022-08-07T14:56:30.037Z,23.64
2022-08-07T15:00:05.540Z,23.97
2022-08-07T15:02:33.111Z,24.67
2022-08-07T15:05:23.555Z,24.76
2022-08-07T15:16:01.117Z,23.50
2022-08-07T15:18:50.182Z,23.13
2022-08-07T15:21:59.519Z,23.19
2022-08-07T15:25:15.649Z,23.78
2022-08-07T15:44:30.761Z,23.84
2022-08-07T15:47:16.824Z,24.40
2022-08-07T15:50:03.788Z,24.52
2022-08-07T15:52:41.060Z,23.67
2022-08-07T15:55:23.167Z,23.95
2022-08-07T15:58:21.072Z,23.17
2022-08-07T16:12:01.107Z,23.39
2022-08-07T16:15:57.704Z,23.33
2022-08-07T16:18:49.745Z,23.25
2022-08-07T16:22:01.751Z,23.27
2022-08-07T16:24:39.760Z,22.81
2022-08-07T16:38:13.140Z,23.04
2022-08-07T16:41:29.159Z,22.40
2022-08-07T16:46:10.907Z,22.27
2022-08-07T16:50:26.691Z,22.48
2022-08-07T17:03:58.318Z,21.34
2022-08-07T17:06:44.759Z,20.46
2022-08-07T17:10:06.313Z,19.58
2022-08-07T17:12:47.545Z,19.24
2022-08-07T17:15:44.144Z,18.54
2022-08-07T17:18:34.108Z,18.69
2022-08-07T17:32:02.485Z,17.26
2022-08-07T17:35:33.165Z,17.49
2022-08-07T17:38:05.522Z,17.22
2022-08-07T17:42:00.987Z,17.67
2022-08-07T17:44:14.734Z,17.38
2022-08-07T17:57:56.544Z,19.72
2022-08-07T18:00:48.684Z,20.60
2022-08-07T18:04:04.250Z,21.48
2022-08-07T18:06:44.148Z,21.55
2022-08-07T18:10:04.968Z,22.27
2022-08-07T18:23:43.446Z,23.82
2022-08-07T18:26:43.159Z,24.18
2022-08-07T18:30:05.282Z,24.71
2022-08-07T18:32:53.129Z,24.37
2022-08-07T18:35:52.072Z,24.84
2022-08-07T18:40:06.406Z,24.50
2022-08-07T18:50:30.416Z,24.72
2022-08-07T18:53:17.958Z,25.00
2022-08-07T18:56:14.312Z,24.92
2022-08-07T19:02:19.117Z,25.45
2022-08-07T19:05:15.352Z,25.77
2022-08-07T19:18:44.883Z,26.06
2022-08-07T19:21:47.611Z,25.77
2022-08-07T19:24:47.982Z,25.93
2022-08-07T19:28:58.737Z,26.03
2022-08-07T19:44:21.176Z,26.60
2022-08-07T19:47:10.879Z,26.77
2022-08-07T19:50:03.156Z,26.79
2022-08-07T19:52:59.151Z,26.71
2022-08-07T19:55:57.496Z,26.69
2022-08-07T19:58:37.942Z,26.87
2022-08-07T20:12:21.976Z,26.80
2022-08-07T20:14:58.431Z,27.38
2022-08-07T20:17:35.892Z,27.42
2022-08-07T20:20:27.160Z,26.98
2022-08-07T20:23:23.364Z,26.86
2022-08-07T20:37:08.140Z,27.56
2022-08-07T20:40:02.248Z,27.13
2022-08-07T20:42:45.002Z,27.37
2022-08-07T20:46:24.164Z,27.22
2022-08-07T20:48:29.963Z,27.61
2022-08-07T21:04:57.620Z,27.73
2022-08-07T21:07:33.882Z,27.75
2022-08-07T21:10:29.757Z,27.86
2022-08-07T21:13:13.660Z,28.14
2022-08-07T21:16:02.169Z,27.75
2022-08-07T21:18:50.565Z,28.28
2022-08-07T21:32:47.887Z,28.15
2022-08-07T21:35:11.407Z,28.51
2022-08-07T21:38:00.165Z,28.74
2022-08-07T21:40:49.497Z,28.68
2022-08-07T21:43:56.364Z,28.99
2022-08-07T21:57:39.709Z,29.04
2022-08-07T22:00:30.977Z,28.93
2022-08-07T22:03:17.391Z,29.60
2022-08-07T22:06:30.163Z,29.29
2022-08-07T22:09:10.951Z,29.54
2022-08-07T22:25:46.149Z,30.05
2022-08-07T22:28:37.320Z,29.90
2022-08-07T22:31:45.228Z,30.12
2022-08-07T22:34:29.095Z,30.07
2022-08-07T22:38:03.064Z,29.53
2022-08-07T22:51:52.047Z,30.20
2022-08-07T22:54:56.902Z,30.29
2022-08-07T22:58:04.196Z,30.09
2022-08-07T23:01:11.535Z,29.83
2022-08-07T23:04:30.154Z,30.09
2022-08-07T23:18:02.186Z,30.43
2022-08-07T23:21:02.891Z,30.67
2022-08-07T23:24:28.009Z,30.63
2022-08-07T23:28:21.130Z,30.19
2022-08-07T23:31:06.598Z,30.61
2022-08-07T23:34:37.944Z,30.63
2022-08-07T23:45:07.138Z,31.76
2022-08-07T23:48:24.984Z,31.92
2022-08-07T23:53:05.675Z,31.67
2022-08-07T23:54:36.072Z,31.90
2022-08-07T23:57:37.178Z,32.04
